Time;durP1;ratioP1;P1;durP2;ratioP2;P2;SDS_P1;SDS_P2;PMS_P1;PMS_P2;Temp;Humidity;BMP_temperature;BMP_pressure;BME280_temperature;BME280_humidity;BME280_pressure;Samples;Min_cycle;Max_cycle;Signal;HPM_P1;HPM_P2
2022/06/17 00:01:42;;;;;;;7.57;3.65;;;13.50;99.90;;;;;;4994971;28;20206;-62
2022/06/17 00:04:09;;;;;;;3.83;3.35;;;13.50;99.90;;;;;;5006195;28;20206;-62
2022/06/17 00:06:40;;;;;;;5.57;3.35;;;13.50;99.90;;;;;;4996528;28;20213;-62
2022/06/17 00:09:07;;;;;;;6.28;3.45;;;13.40;99.90;;;;;;4995185;28;20609;-61
2022/06/17 00:11:36;;;;;;;6.22;4.50;;;13.40;99.90;;;;;;4978327;28;20217;-62
2022/06/17 00:14:04;;;;;;;5.40;3.67;;;13.50;99.90;;;;;;5004391;28;20743;-62
2022/06/17 00:16:31;;;;;;;6.55;4.32;;;13.50;99.90;;;;;;4979520;28;20222;-62
2022/06/17 00:18:58;;;;;;;4.30;3.90;;;11.30;99.90;;;;;;4999188;28;23375;-62
2022/06/17 00:21:31;;;;;;;7.45;3.83;;;13.40;99.90;;;;;;5010024;28;20198;-62
2022/06/17 00:24:02;;;;;;;5.45;3.92;;;13.40;99.90;;;;;;4996154;28;20715;-62
2022/06/17 00:26:29;;;;;;;4.88;3.97;;;13.40;99.90;;;;;;4991009;28;20704;-62
2022/06/17 00:28:55;;;;;;;4.05;3.53;;;13.40;99.90;;;;;;4968690;28;20226;-62
2022/06/17 00:31:22;;;;;;;5.68;4.05;;;13.30;99.90;;;;;;5005437;28;20194;-62
2022/06/17 00:33:49;;;;;;;4.82;4.05;;;13.30;99.90;;;;;;4996101;28;20213;-63
2022/06/17 00:36:19;;;;;;;4.55;3.90;;;13.40;99.90;;;;;;5016847;28;20881;-63
2022/06/17 00:38:47;;;;;;;5.95;3.55;;;13.40;99.90;;;;;;4995046;28;20203;-62
2022/06/17 00:41:21;;;;;;;6.10;4.40;;;13.30;99.90;;;;;;4973483;28;20219;-62
2022/06/17 00:43:48;;;;;;;5.57;3.67;;;13.30;99.90;;;;;;4996958;28;20210;-62
2022/06/17 00:46:28;;;;;;;5.13;3.40;;;13.20;99.90;;;;;;5008792;28;20212;-62
2022/06/17 00:49:01;;;;;;;7.93;3.67;;;13.20;99.90;;;;;;4996523;28;20206;-62
2022/06/17 00:51:33;;;;;;;5.85;3.60;;;13.20;99.90;;;;;;5011592;28;20209;-62
2022/06/17 00:54:03;;;;;;;4.68;3.80;;;13.00;99.90;;;;;;4996823;28;21032;-62
2022/06/17 00:56:33;;;;;;;5.50;3.90;;;13.10;99.90;;;;;;4979205;28;21048;-62
2022/06/17 00:59:04;;;;;;;8.20;4.28;;;13.40;99.90;;;;;;4986136;28;20216;-62
2022/06/17 01:01:39;;;;;;;8.55;4.38;;;13.10;99.90;;;;;;4990728;28;20657;-62
2022/06/17 01:04:09;;;;;;;8.13;4.40;;;13.10;99.90;;;;;;4998592;28;20208;-61
2022/06/17 01:06:40;;;;;;;5.15;3.80;;;13.10;99.90;;;;;;5016891;28;20213;-62
2022/06/17 01:11:59;;;;;;;5.95;3.72;;;13.00;99.90;;;;;;4995530;28;20232;-62
2022/06/17 01:14:28;;;;;;;6.78;3.88;;;13.00;99.90;;;;;;4991992;28;20198;-62
2022/06/17 01:16:57;;;;;;;5.72;3.97;;;13.00;99.90;;;;;;4988307;28;20255;-62
2022/06/17 01:19:30;;;;;;;7.95;4.10;;;13.20;99.90;;;;;;5007723;28;20211;-61
2022/06/17 01:22:06;;;;;;;8.27;4.72;;;13.00;99.90;;;;;;4998849;28;20204;-62
2022/06/17 01:24:35;;;;;;;5.53;4.53;;;12.90;99.90;;;;;;4998005;28;20240;-62
2022/06/17 01:27:03;;;;;;;5.80;4.80;;;13.00;99.90;;;;;;4981603;28;20206;-62
2022/06/17 01:29:31;;;;;;;7.93;4.50;;;13.00;99.90;;;;;;4981329;28;20215;-62
2022/06/17 01:31:58;;;;;;;6.82;5.80;;;13.00;99.90;;;;;;5005935;28;20256;-62
2022/06/17 01:34:24;;;;;;;7.97;5.10;;;13.00;99.90;;;;;;4994169;28;20206;-62
2022/06/17 01:36:53;;;;;;;6.32;5.03;;;13.10;99.90;;;;;;5011269;28;20987;-61
2022/06/17 01:39:20;;;;;;;5.95;4.72;;;13.00;99.90;;;;;;4981158;28;20198;-62
2022/06/17 01:41:49;;;;;;;5.65;4.32;;;12.90;99.90;;;;;;4990743;28;20211;-62
2022/06/17 01:44:20;;;;;;;6.85;4.00;;;13.00;99.90;;;;;;4990859;28;20213;-62
2022/06/17 01:46:51;;;;;;;5.65;4.18;;;12.10;99.90;;;;;;5007494;28;20289;-61
2022/06/17 01:49:21;;;;;;;5.55;4.28;;;12.80;99.90;;;;;;5002125;28;20209;-61
2022/06/17 01:51:52;;;;;;;5.43;4.57;;;12.60;99.90;;;;;;4997032;28;20205;-61
2022/06/17 01:54:23;;;;;;;6.97;4.32;;;12.50;99.90;;;;;;5008907;28;20209;-62
2022/06/17 01:56:54;;;;;;;4.65;4.05;;;12.50;99.90;;;;;;4985381;28;20720;-62
2022/06/17 01:59:25;;;;;;;6.07;4.55;;;12.40;99.90;;;;;;4981437;28;20214;-62
2022/06/17 02:01:55;;;;;;;4.90;4.15;;;12.30;99.90;;;;;;4997466;28;20209;-61
2022/06/17 02:04:26;;;;;;;6.30;4.50;;;12.30;99.90;;;;;;4998311;28;20206;-62
2022/06/17 02:06:59;;;;;;;5.28;4.78;;;12.40;99.90;;;;;;5010281;28;20197;-61
2022/06/17 02:09:26;;;;;;;9.45;6.18;;;12.30;99.90;;;;;;4995315;28;20198;-62
2022/06/17 02:11:55;;;;;;;6.10;5.45;;;12.30;99.90;;;;;;4995574;28;21444;-61
2022/06/17 02:14:22;;;;;;;6.03;5.38;;;12.40;99.90;;;;;;4988261;28;20214;-62
2022/06/17 02:16:53;;;;;;;10.02;6.18;;;12.40;99.90;;;;;;4983186;28;20238;-61
2022/06/17 02:19:23;;;;;;;7.22;5.63;;;12.40;99.90;;;;;;5003310;28;20194;-62
2022/06/17 02:21:57;;;;;;;8.40;5.65;;;12.40;99.90;;;;;;4996713;28;20226;-62
2022/06/17 02:24:26;;;;;;;6.93;6.18;;;12.40;99.90;;;;;;5005144;28;20229;-61
2022/06/17 02:26:55;;;;;;;6.97;5.88;;;12.40;99.90;;;;;;4998938;28;20213;-62
2022/06/17 02:29:24;;;;;;;9.23;5.95;;;12.40;99.90;;;;;;4978693;28;20510;-61
2022/06/17 02:31:51;;;;;;;6.90;5.55;;;12.30;99.90;;;;;;4997071;28;20617;-62
2022/06/17 02:34:20;;;;;;;9.88;5.78;;;12.30;99.90;;;;;;4982899;28;20205;-62
2022/06/17 02:36:53;;;;;;;7.53;5.60;;;12.20;99.90;;;;;;4987836;28;20213;-61
2022/06/17 02:39:20;;;;;;;10.68;6.15;;;12.40;99.90;;;;;;5005894;28;20259;-61
2022/06/17 02:41:49;;;;;;;9.15;6.35;;;12.40;99.90;;;;;;4985976;28;20228;-61
2022/06/17 02:44:21;;;;;;;11.65;6.88;;;12.40;99.90;;;;;;4973099;28;20210;-62
2022/06/17 02:46:52;;;;;;;7.93;6.63;;;12.50;99.90;;;;;;4991302;28;20219;-62
2022/06/17 02:49:22;;;;;;;12.52;6.18;;;12.50;99.90;;;;;;4984532;28;20209;-61
2022/06/17 02:51:50;;;;;;;8.25;6.18;;;12.50;99.90;;;;;;4992413;28;20198;-61
2022/06/17 02:54:23;;;;;;;7.70;6.40;;;12.40;99.90;;;;;;5003119;28;20215;-61
2022/06/17 02:56:53;;;;;;;8.75;6.65;;;12.50;99.90;;;;;;5005395;28;20221;-62
2022/06/17 02:59:25;;;;;;;10.73;7.57;;;12.50;99.90;;;;;;4959930;28;20226;-62
2022/06/17 03:01:55;;;;;;;8.18;6.10;;;12.50;99.90;;;;;;4989965;28;20245;-61
2022/06/17 03:04:25;;;;;;;9.63;7.32;;;12.50;99.90;;;;;;4967461;28;20217;-61
2022/06/17 03:06:53;;;;;;;8.82;6.80;;;12.50;99.90;;;;;;4992459;28;20206;-61
2022/06/17 03:09:23;;;;;;;9.27;7.05;;;12.60;99.90;;;;;;5003369;28;20910;-62
2022/06/17 03:11:55;;;;;;;9.48;7.30;;;12.50;99.90;;;;;;4990215;28;20198;-62
2022/06/17 03:14:26;;;;;;;9.88;6.80;;;12.50;99.90;;;;;;4984690;28;20205;-62
2022/06/17 03:16:59;;;;;;;10.25;7.68;;;12.60;99.90;;;;;;4972997;28;20827;-62
2022/06/17 03:19:29;;;;;;;11.02;6.95;;;12.40;99.90;;;;;;4979585;28;20198;-62
2022/06/17 03:21:56;;;;;;;8.50;6.70;;;12.60;99.90;;;;;;4991678;28;20207;-61
2022/06/17 03:24:26;;;;;;;8.98;6.72;;;12.60;99.90;;;;;;5007157;28;21150;-62
2022/06/17 03:26:58;;;;;;;8.60;6.63;;;12.60;99.90;;;;;;4994599;28;20297;-62
2022/06/17 03:29:28;;;;;;;9.07;6.55;;;12.60;99.90;;;;;;4998169;28;20207;-61
2022/06/17 03:32:02;;;;;;;11.60;6.28;;;12.60;99.90;;;;;;4971490;28;20413;-62
2022/06/17 03:34:36;;;;;;;9.70;6.28;;;12.70;99.90;;;;;;4980321;28;20212;-62
2022/06/17 03:37:09;;;;;;;7.93;6.25;;;12.60;99.90;;;;;;4996750;28;20253;-62
2022/06/17 03:39:38;;;;;;;11.75;6.30;;;12.50;99.90;;;;;;4998747;28;20212;-61
2022/06/17 03:42:14;;;;;;;8.02;6.25;;;12.50;99.90;;;;;;4996181;28;20512;-61
2022/06/17 03:44:53;;;;;;;8.02;6.25;;;12.60;99.90;;;;;;4999397;28;21314;-61
2022/06/17 03:47:24;;;;;;;11.80;6.85;;;12.60;99.90;;;;;;4970325;28;20279;-62
2022/06/17 03:49:55;;;;;;;9.13;6.70;;;12.60;99.90;;;;;;4978635;28;20198;-62
2022/06/17 03:52:30;;;;;;;9.00;6.20;;;12.70;99.90;;;;;;4990668;28;20225;-62
2022/06/17 03:54:57;;;;;;;8.73;6.78;;;12.60;99.90;;;;;;4998582;28;20205;-62
2022/06/17 03:57:26;;;;;;;10.63;6.70;;;12.60;99.90;;;;;;4994894;28;20620;-61
2022/06/17 03:59:55;;;;;;;9.07;6.25;;;12.60;99.90;;;;;;4986487;28;20202;-62
2022/06/17 04:02:29;;;;;;;8.40;6.93;;;12.60;99.90;;;;;;4968726;28;20593;-62
2022/06/17 04:04:57;;;;;;;10.80;7.32;;;12.60;99.90;;;;;;4975961;28;20210;-63
2022/06/17 04:07:24;;;;;;;8.13;6.70;;;12.60;99.90;;;;;;4995070;28;20643;-61
2022/06/17 04:09:54;;;;;;;8.38;6.50;;;12.80;99.90;;;;;;4986436;28;20207;-62
2022/06/17 04:12:25;;;;;;;10.57;6.80;;;12.80;99.90;;;;;;4997206;28;20221;-62
2022/06/17 04:15:00;;;;;;;7.45;6.32;;;12.80;99.90;;;;;;5009293;28;20210;-61
2022/06/17 04:17:33;;;;;;;8.45;6.30;;;12.90;99.90;;;;;;4996957;28;20236;-61
2022/06/17 04:20:27;;;;;;;10.25;6.47;;;12.90;99.90;;;;;;4963875;28;20214;-62
2022/06/17 04:22:57;;;;;;;7.90;6.47;;;13.00;99.90;;;;;;4980967;28;20228;-62
2022/06/17 04:25:32;;;;;;;7.20;6.47;;;13.20;99.90;;;;;;4995087;28;20236;-62
2022/06/17 04:28:06;;;;;;;11.45;7.53;;;13.10;99.90;;;;;;4998307;28;20201;-62
2022/06/17 04:30:38;;;;;;;9.55;7.00;;;13.20;99.90;;;;;;5014160;28;20205;-61
2022/06/17 04:33:13;;;;;;;12.30;8.00;;;13.40;99.90;;;;;;4972230;28;20935;-62
2022/06/17 04:35:40;;;;;;;9.93;7.30;;;13.30;99.90;;;;;;4995799;28;20293;-62
2022/06/17 04:38:07;;;;;;;12.75;7.00;;;13.40;99.90;;;;;;4992707;28;20222;-62
2022/06/17 04:40:39;;;;;;;12.63;7.95;;;13.30;99.90;;;;;;4987157;28;20461;-61
2022/06/17 04:43:14;;;;;;;9.32;7.90;;;13.50;99.90;;;;;;4994346;28;20694;-61
2022/06/17 04:45:54;;;;;;;10.95;8.20;;;13.60;99.90;;;;;;5013431;28;20928;-61
2022/06/17 04:48:21;;;;;;;11.43;8.20;;;13.60;99.90;;;;;;4987440;28;20209;-61
2022/06/17 04:50:48;;;;;;;9.98;8.15;;;13.70;99.90;;;;;;4979458;28;20221;-61
2022/06/17 04:53:16;;;;;;;10.23;8.70;;;13.80;99.90;;;;;;5002457;28;21175;-61
2022/06/17 04:55:46;;;;;;;9.93;7.43;;;13.70;99.90;;;;;;5012480;28;20595;-61
2022/06/17 04:58:14;;;;;;;11.48;7.55;;;13.90;99.90;;;;;;4996876;28;20775;-62
2022/06/17 05:00:46;;;;;;;13.77;8.02;;;13.90;99.90;;;;;;5014450;28;20619;-61
2022/06/17 05:03:13;;;;;;;10.88;8.05;;;14.00;99.90;;;;;;4997621;28;20227;-62
2022/06/17 05:05:42;;;;;;;8.07;7.05;;;14.10;99.90;;;;;;4992768;28;20227;-62
2022/06/17 05:08:16;;;;;;;8.52;7.15;;;14.20;99.90;;;;;;4985655;28;20203;-61
2022/06/17 05:10:45;;;;;;;10.32;8.52;;;14.20;99.90;;;;;;4990968;28;20714;-61
2022/06/17 05:13:19;;;;;;;14.77;8.70;;;14.30;99.90;;;;;;4992431;28;20241;-62
2022/06/17 05:15:48;;;;;;;11.27;7.88;;;14.20;99.90;;;;;;5003830;28;20581;-61
2022/06/17 05:18:15;;;;;;;13.68;7.68;;;14.40;99.90;;;;;;4996960;28;20236;-61
2022/06/17 05:20:42;;;;;;;13.23;7.63;;;14.40;99.90;;;;;;4989661;28;21046;-62
2022/06/17 05:23:15;;;;;;;12.65;8.93;;;14.50;99.90;;;;;;5020203;28;20769;-63
2022/06/17 05:25:47;;;;;;;12.52;8.55;;;14.40;99.90;;;;;;5009133;28;20599;-62
2022/06/17 05:28:16;;;;;;;10.63;9.18;;;14.60;99.90;;;;;;5002617;28;20209;-62
2022/06/17 05:30:51;;;;;;;14.45;10.25;;;14.70;99.90;;;;;;5010706;28;20234;-62
2022/06/17 05:33:19;;;;;;;15.60;12.95;;;14.70;99.90;;;;;;5010805;28;20208;-62
2022/06/17 05:35:46;;;;;;;16.30;12.07;;;14.80;99.90;;;;;;4994451;28;20206;-62
2022/06/17 05:38:13;;;;;;;17.73;11.90;;;14.80;99.90;;;;;;5013867;28;20224;-61
2022/06/17 05:40:41;;;;;;;19.33;12.15;;;14.90;99.90;;;;;;5006525;28;20206;-61
2022/06/17 05:43:10;;;;;;;12.63;10.73;;;15.00;99.90;;;;;;5008466;28;20209;-62
2022/06/17 05:45:37;;;;;;;11.52;9.65;;;15.00;99.90;;;;;;5013792;28;20205;-62
2022/06/17 05:48:05;;;;;;;12.95;8.80;;;15.10;99.90;;;;;;5016097;28;20209;-61
2022/06/17 05:50:33;;;;;;;10.07;8.43;;;15.10;99.90;;;;;;4986201;28;20206;-62
2022/06/17 05:53:02;;;;;;;11.43;8.57;;;15.20;99.90;;;;;;5019204;28;20198;-62
2022/06/17 05:55:31;;;;;;;9.30;7.63;;;15.20;99.90;;;;;;5006295;28;20216;-62
2022/06/17 05:57:58;;;;;;;7.90;7.03;;;15.30;99.90;;;;;;5004513;28;20241;-62
2022/06/17 06:00:26;;;;;;;12.38;6.78;;;15.40;99.90;;;;;;5009461;28;20308;-62
2022/06/17 06:02:57;;;;;;;8.52;6.80;;;15.50;99.90;;;;;;5017037;28;20206;-62
2022/06/17 06:05:28;;;;;;;12.65;6.88;;;15.50;99.90;;;;;;4986048;28;20218;-62
2022/06/17 06:07:55;;;;;;;9.55;7.05;;;15.60;99.90;;;;;;5015696;28;20206;-62
2022/06/17 06:10:23;;;;;;;12.45;9.63;;;15.70;99.90;;;;;;5012497;28;20209;-62
2022/06/17 06:13:00;;;;;;;11.35;8.93;;;15.80;99.90;;;;;;5006505;28;20198;-61
2022/06/17 06:15:30;;;;;;;14.85;9.00;;;15.80;99.90;;;;;;5014494;28;20206;-62
2022/06/17 06:17:57;;;;;;;12.88;9.45;;;15.90;99.90;;;;;;5017485;28;20214;-61
2022/06/17 06:20:26;;;;;;;10.95;8.60;;;16.00;99.90;;;;;;5002897;28;20238;-62
2022/06/17 06:22:53;;;;;;;13.73;7.72;;;16.10;99.90;;;;;;4995070;28;20211;-62
2022/06/17 06:25:20;;;;;;;11.40;6.75;;;;;;;;;;5004918;28;20618;-62
2022/06/17 06:27:47;;;;;;;10.60;7.28;;;16.30;99.90;;;;;;4994040;28;20719;-61
2022/06/17 06:30:19;;;;;;;9.85;7.88;;;16.50;99.90;;;;;;5015242;28;20675;-62
2022/06/17 06:32:51;;;;;;;9.48;6.78;;;16.70;99.90;;;;;;5004733;28;20611;-61
2022/06/17 06:35:18;;;;;;;6.50;5.30;;;16.80;99.90;;;;;;5008405;28;20202;-62
2022/06/17 06:37:46;;;;;;;7.78;5.68;;;17.00;99.90;;;;;;4989858;28;20209;-61
2022/06/17 06:40:13;;;;;;;8.93;5.68;;;17.10;99.90;;;;;;5005894;28;20194;-62
2022/06/17 06:42:40;;;;;;;8.02;6.20;;;17.10;99.90;;;;;;5000148;28;21152;-62
2022/06/17 06:45:12;;;;;;;8.68;5.95;;;17.30;99.90;;;;;;5018936;28;20631;-61
2022/06/17 06:47:39;;;;;;;10.63;6.07;;;17.30;99.90;;;;;;5005048;28;20244;-62
2022/06/17 06:50:10;;;;;;;8.48;7.30;;;17.30;99.90;;;;;;5018632;28;20667;-62
2022/06/17 06:52:36;;;;;;;8.45;5.97;;;17.30;99.90;;;;;;4988633;28;20225;-61
2022/06/17 06:55:05;;;;;;;7.55;5.80;;;17.30;99.90;;;;;;5020847;28;20210;-62
2022/06/17 06:57:32;;;;;;;9.02;6.35;;;17.30;99.90;;;;;;4997300;28;20214;-62
2022/06/17 07:00:01;;;;;;;7.78;5.88;;;17.30;99.90;;;;;;5004741;28;20228;-62
2022/06/17 07:02:28;;;;;;;7.35;5.95;;;17.40;99.90;;;;;;5014265;28;20206;-62
2022/06/17 07:04:55;;;;;;;8.95;5.88;;;17.30;99.90;;;;;;5011204;28;20210;-62
2022/06/17 07:07:22;;;;;;;8.20;6.13;;;17.40;99.90;;;;;;4984997;28;20201;-62
2022/06/17 07:09:48;;;;;;;11.00;6.00;;;17.40;99.90;;;;;;5013329;28;20229;-61
2022/06/17 07:12:17;;;;;;;7.32;5.57;;;17.50;99.90;;;;;;5015313;28;20210;-62
2022/06/17 07:14:43;;;;;;;7.10;5.53;;;17.40;99.90;;;;;;5007068;28;20202;-62
2022/06/17 07:17:11;;;;;;;11.73;5.53;;;17.50;99.90;;;;;;5007840;28;20880;-62
2022/06/17 07:19:38;;;;;;;7.05;5.30;;;17.50;99.90;;;;;;4995124;28;20221;-62
2022/06/17 07:22:05;;;;;;;7.78;4.90;;;17.70;99.90;;;;;;5001491;28;20223;-62
2022/06/17 07:24:32;;;;;;;5.75;4.63;;;17.70;99.90;;;;;;4982412;28;20372;-62
2022/06/17 07:26:59;;;;;;;9.50;4.90;;;17.70;99.90;;;;;;5000470;28;20233;-62
2022/06/17 07:29:27;;;;;;;8.48;4.80;;;17.70;99.90;;;;;;4987677;28;20229;-62
2022/06/17 07:31:54;;;;;;;6.72;4.50;;;17.70;99.90;;;;;;5003365;28;20238;-63
2022/06/17 07:34:21;;;;;;;6.95;4.95;;;17.80;99.90;;;;;;4999018;28;20299;-62
2022/06/17 07:42:16;;;;;;;6.15;4.78;;;17.90;99.90;;;;;;5001402;28;20312;-62
2022/06/17 07:44:44;;;;;;;9.50;4.90;;;17.90;99.90;;;;;;4990568;28;20225;-63
2022/06/17 07:47:15;;;;;;;5.57;4.47;;;18.00;99.90;;;;;;5011050;28;20994;-62
2022/06/17 07:49:42;;;;;;;7.95;4.65;;;18.10;99.90;;;;;;5000274;28;20203;-63
2022/06/17 07:52:09;;;;;;;9.07;4.35;;;18.10;99.90;;;;;;5001981;28;20206;-62
2022/06/17 07:54:37;;;;;;;6.15;4.35;;;18.10;99.90;;;;;;4977770;28;20687;-63
2022/06/17 07:57:04;;;;;;;7.05;4.35;;;18.20;99.90;;;;;;5003068;28;20222;-62
2022/06/17 07:59:31;;;;;;;15.52;4.80;;;18.20;99.90;;;;;;4994081;28;20230;-63
2022/06/17 08:01:59;;;;;;;8.13;4.82;;;18.20;99.90;;;;;;5006488;28;20226;-63
2022/06/17 08:04:27;;;;;;;8.10;4.63;;;17.60;99.90;;;;;;5000602;28;20222;-62
2022/06/17 08:06:54;;;;;;;10.27;5.10;;;18.30;99.90;;;;;;4996958;28;20317;-62
2022/06/17 08:09:23;;;;;;;6.28;4.85;;;18.30;99.90;;;;;;4985210;28;20805;-63
2022/06/17 08:11:50;;;;;;;7.38;4.65;;;18.50;99.90;;;;;;5007084;28;20210;-63
2022/06/17 08:14:17;;;;;;;9.63;4.88;;;18.40;99.90;;;;;;5011417;28;20218;-63
2022/06/17 08:16:45;;;;;;;7.82;5.30;;;18.50;99.90;;;;;;5002888;28;20233;-62
2022/06/17 08:19:13;;;;;;;6.45;5.05;;;18.50;99.90;;;;;;5011510;28;20218;-62
2022/06/17 08:21:40;;;;;;;7.88;4.72;;;18.50;99.90;;;;;;4996661;28;20444;-63
2022/06/17 08:24:08;;;;;;;8.75;4.10;;;18.60;99.90;;;;;;5020071;28;20226;-64
2022/06/17 08:26:35;;;;;;;8.02;4.65;;;18.70;99.90;;;;;;4987748;28;20700;-62
2022/06/17 08:29:02;;;;;;;9.13;4.30;;;18.80;99.90;;;;;;5012792;28;20220;-62
2022/06/17 08:31:29;;;;;;;7.82;4.70;;;18.80;99.90;;;;;;5002485;28;20234;-62
2022/06/17 08:33:55;;;;;;;5.65;4.45;;;18.80;99.90;;;;;;5019165;28;20206;-62
2022/06/17 08:36:27;;;;;;;11.90;3.97;;;18.90;99.90;;;;;;5014761;28;20663;-63
2022/06/17 08:38:58;;;;;;;12.48;4.15;;;18.90;99.90;;;;;;5011471;28;20240;-62
2022/06/17 08:41:27;;;;;;;6.88;4.68;;;19.00;99.90;;;;;;4987161;28;20214;-63
2022/06/17 08:44:28;;;;;;;7.40;4.50;;;19.00;99.90;;;;;;5008297;28;20808;-63
2022/06/17 08:47:12;;;;;;;4.95;3.78;;;19.10;99.90;;;;;;5006405;28;20291;-63
2022/06/17 08:49:52;;;;;;;9.13;4.13;;;18.60;99.90;;;;;;5015458;28;20199;-63
2022/06/17 08:52:37;;;;;;;9.07;4.25;;;19.20;99.90;;;;;;5019854;28;20206;-62
2022/06/17 08:55:14;;;;;;;8.70;4.40;;;19.20;99.90;;;;;;5002741;28;23176;-63
2022/06/17 08:57:50;;;;;;;4.22;3.47;;;19.30;99.90;;;;;;4995808;28;20222;-62
2022/06/17 09:00:20;;;;;;;8.30;3.75;;;19.40;99.90;;;;;;5019400;28;20226;-63
2022/06/17 09:03:24;;;;;;;4.63;4.00;;;19.40;99.90;;;;;;5002879;28;20208;-62
2022/06/17 09:06:01;;;;;;;14.05;4.40;;;19.50;99.90;;;;;;4991301;28;20869;-63
2022/06/17 09:08:44;;;;;;;5.60;4.00;;;19.60;99.90;;;;;;5008040;28;20218;-63
2022/06/17 09:11:20;;;;;;;12.52;3.90;;;19.70;99.90;;;;;;4989233;28;20210;-63
2022/06/17 09:14:00;;;;;;;7.45;4.55;;;19.70;99.90;;;;;;4980933;28;20769;-62
2022/06/17 09:16:38;;;;;;;9.88;4.38;;;19.80;99.90;;;;;;5002441;28;20190;-63
2022/06/17 09:19:06;;;;;;;13.05;3.60;;;19.90;99.90;;;;;;4971013;28;20359;-62
2022/06/17 09:21:37;;;;;;;7.68;4.03;;;19.90;99.90;;;;;;4991978;28;20240;-62
2022/06/17 09:24:08;;;;;;;6.80;3.60;;;20.00;99.90;;;;;;5011582;28;20249;-62
2022/06/17 09:26:40;;;;;;;7.53;4.63;;;19.00;99.90;;;;;;5001984;28;20217;-62
2022/06/17 09:29:12;;;;;;;12.57;4.10;;;20.20;99.90;;;;;;4964591;28;20227;-63
2022/06/17 09:31:45;;;;;;;7.40;4.25;;;20.20;99.90;;;;;;5004371;28;20655;-63
2022/06/17 09:34:18;;;;;;;7.07;3.80;;;20.30;99.90;;;;;;4989601;28;20213;-63
2022/06/17 09:36:49;;;;;;;6.72;4.20;;;20.20;99.90;;;;;;5015633;28;20226;-64
2022/06/17 09:39:23;;;;;;;4.57;4.10;;;20.20;99.90;;;;;;4992576;28;20238;-63
2022/06/17 09:41:54;;;;;;;8.27;4.13;;;20.30;99.90;;;;;;4997178;28;20206;-63
2022/06/17 09:44:25;;;;;;;5.63;4.13;;;20.30;99.90;;;;;;4976047;28;20210;-62
2022/06/17 09:46:57;;;;;;;5.88;4.38;;;20.30;99.90;;;;;;5006032;28;20195;-63
2022/06/17 09:49:36;;;;;;;8.73;4.30;;;20.20;99.90;;;;;;4994464;28;20202;-62
2022/06/17 09:52:09;;;;;;;7.38;3.67;;;20.10;99.90;;;;;;5012462;28;20324;-63
2022/06/17 09:54:42;;;;;;;5.60;3.35;;;20.10;99.90;;;;;;5011596;28;20195;-63
2022/06/17 09:57:13;;;;;;;4.25;3.30;;;20.00;99.90;;;;;;5000086;28;20205;-63
2022/06/17 09:59:51;;;;;;;6.05;3.55;;;20.10;99.90;;;;;;4988159;28;20251;-63
2022/06/17 10:02:23;;;;;;;7.45;4.32;;;20.10;99.90;;;;;;5014246;28;20575;-63
2022/06/17 10:04:55;;;;;;;6.80;4.43;;;20.20;99.90;;;;;;4985355;28;20760;-63
2022/06/17 10:07:27;;;;;;;9.15;4.82;;;20.20;99.90;;;;;;5015534;28;20204;-63
2022/06/17 10:10:13;;;;;;;7.70;4.32;;;20.30;99.90;;;;;;5011564;28;20194;-63
2022/06/17 10:12:54;;;;;;;5.32;3.95;;;20.30;99.90;;;;;;5000692;28;20228;-63
2022/06/17 10:15:35;;;;;;;7.00;4.00;;;20.40;99.90;;;;;;4974336;28;20230;-63
2022/06/17 10:21:18;;;;;;;12.90;4.25;;;20.30;99.90;;;;;;4974967;28;20226;-63
2022/06/17 10:23:55;;;;;;;5.72;4.03;;;20.30;99.90;;;;;;5005408;28;20233;-62
2022/06/17 10:26:32;;;;;;;5.15;4.43;;;20.30;99.90;;;;;;4991317;28;20722;-63
2022/06/17 10:29:23;;;;;;;7.15;4.05;;;20.00;99.90;;;;;;4989303;28;20256;-63
2022/06/17 10:31:51;;;;;;;6.20;4.32;;;20.40;99.90;;;;;;4991723;28;20203;-62
2022/06/17 10:34:22;;;;;;;8.02;4.60;;;20.50;99.90;;;;;;5003497;28;20780;-63
2022/06/17 10:36:54;;;;;;;7.57;4.05;;;20.60;99.90;;;;;;4995037;28;20206;-63
2022/06/17 10:39:25;;;;;;;9.18;4.07;;;20.60;99.90;;;;;;4999563;28;20221;-63
2022/06/17 10:41:53;;;;;;;7.13;4.00;;;20.70;99.90;;;;;;5005357;28;20222;-63
2022/06/17 10:44:24;;;;;;;4.82;3.90;;;20.70;99.90;;;;;;4973962;28;20227;-62
2022/06/17 10:46:58;;;;;;;5.60;4.03;;;20.80;99.90;;;;;;4986961;28;20233;-63
2022/06/17 10:49:30;;;;;;;5.03;3.92;;;20.70;99.90;;;;;;5004785;28;20425;-63
2022/06/17 10:52:01;;;;;;;4.07;3.35;;;21.00;99.90;;;;;;4988586;28;23536;-63
2022/06/17 10:54:32;;;;;;;6.55;3.65;;;21.00;99.90;;;;;;5005698;28;20206;-63
2022/06/17 10:57:06;;;;;;;7.68;4.45;;;21.30;99.90;;;;;;5012275;28;20716;-64
2022/06/17 10:59:36;;;;;;;6.20;3.40;;;21.40;99.90;;;;;;4970362;28;20217;-62
2022/06/17 11:02:04;;;;;;;3.80;3.35;;;21.60;99.90;;;;;;4967903;28;20231;-64
2022/06/17 11:04:35;;;;;;;7.53;3.05;;;21.50;99.90;;;;;;4989613;28;20373;-62
2022/06/17 11:07:15;;;;;;;4.75;3.08;;;21.50;99.90;;;;;;4991998;28;20201;-62
2022/06/17 11:09:47;;;;;;;3.53;2.70;;;21.50;99.90;;;;;;4998148;28;20205;-62
2022/06/17 11:12:21;;;;;;;6.75;2.80;;;21.50;99.90;;;;;;5000393;28;20233;-63
2022/06/17 11:14:53;;;;;;;6.70;2.97;;;21.60;99.90;;;;;;4987409;28;21102;-64
2022/06/17 11:17:30;;;;;;;3.20;2.80;;;21.70;99.90;;;;;;4992868;28;20683;-62
2022/06/17 11:20:02;;;;;;;3.22;2.72;;;21.80;99.90;;;;;;4960699;28;20766;-61
2022/06/17 11:22:33;;;;;;;6.60;2.80;;;21.80;99.90;;;;;;4979341;28;20817;-64
2022/06/17 11:25:04;;;;;;;5.90;2.80;;;21.90;99.90;;;;;;4994077;28;20711;-64
2022/06/17 11:27:37;;;;;;;3.50;2.53;;;21.80;99.90;;;;;;4998747;28;20711;-63
2022/06/17 11:30:30;;;;;;;8.48;2.95;;;22.80;99.90;;;;;;5000839;28;20218;-63
2022/06/17 11:32:59;;;;;;;2.88;2.67;;;21.80;99.90;;;;;;4980487;28;20206;-63
2022/06/17 11:35:38;;;;;;;7.82;3.00;;;21.90;99.90;;;;;;4994655;28;20217;-64
2022/06/17 11:38:11;;;;;;;7.60;2.63;;;22.00;99.90;;;;;;4999462;28;20225;-64
2022/06/17 11:40:48;;;;;;;4.40;3.00;;;22.00;99.90;;;;;;5002098;28;20324;-61
2022/06/17 11:43:28;;;;;;;5.75;3.10;;;21.90;99.90;;;;;;4996641;28;20234;-62
2022/06/17 11:45:55;;;;;;;5.68;3.28;;;22.60;99.90;;;;;;4973764;28;20245;-61
2022/06/17 11:48:22;;;;;;;5.55;2.75;;;21.90;99.90;;;;;;4979324;28;20744;-61
2022/06/17 11:51:06;;;;;;;7.43;3.00;;;21.80;99.90;;;;;;4993036;28;20424;-62
2022/06/17 11:53:43;;;;;;;3.80;2.78;;;21.90;99.90;;;;;;4983758;28;20222;-63
2022/06/17 11:56:11;;;;;;;8.43;3.00;;;21.90;99.90;;;;;;5007111;28;20209;-63
2022/06/17 12:01:31;;;;;;;9.93;2.95;;;22.00;99.90;;;;;;5022761;27;20818;-63
2022/06/17 12:03:58;;;;;;;4.40;2.78;;;22.00;99.90;;;;;;5045829;28;20724;-63
2022/06/17 12:06:28;;;;;;;4.03;2.90;;;22.00;99.90;;;;;;5044922;28;20224;-63
2022/06/17 12:09:04;;;;;;;10.60;2.90;;;22.00;99.90;;;;;;5030979;28;20713;-63
2022/06/17 12:11:41;;;;;;;5.15;2.95;;;21.90;99.90;;;;;;5053982;28;20232;-63
2022/06/17 12:14:16;;;;;;;6.80;3.25;;;21.80;99.90;;;;;;5055081;28;20265;-63
2022/06/17 12:16:45;;;;;;;7.25;2.92;;;21.60;99.90;;;;;;5041385;28;20219;-63
2022/06/17 12:19:18;;;;;;;10.07;3.40;;;21.60;99.90;;;;;;5049780;28;20193;-63
2022/06/17 12:21:56;;;;;;;6.30;3.15;;;21.50;99.90;;;;;;5053145;28;20923;-63
2022/06/17 12:24:32;;;;;;;4.95;3.17;;;21.50;99.90;;;;;;5035517;28;20271;-62
2022/06/17 12:27:08;;;;;;;5.28;3.05;;;21.40;99.90;;;;;;5063953;28;20192;-62
2022/06/17 12:29:40;;;;;;;5.35;3.40;;;21.60;99.90;;;;;;5063369;28;20848;-63
2022/06/17 12:32:14;;;;;;;3.55;2.97;;;21.60;99.90;;;;;;5006111;28;20253;-63
2022/06/17 12:34:48;;;;;;;3.67;3.13;;;21.40;99.90;;;;;;5032198;28;20258;-63
2022/06/17 12:37:27;;;;;;;4.97;2.85;;;21.40;99.90;;;;;;5027576;28;20224;-63
2022/06/17 12:40:01;;;;;;;5.55;3.35;;;21.50;99.90;;;;;;5021765;28;20972;-63
2022/06/17 12:42:34;;;;;;;5.55;3.35;;;21.50;99.90;;;;;;5063816;22;20220;-61
2022/06/17 12:45:10;;;;;;;5.32;3.25;;;21.50;99.90;;;;;;5051775;28;20200;-62
2022/06/17 12:47:52;;;;;;;7.60;3.35;;;21.40;99.90;;;;;;5056751;22;20235;-63
2022/06/17 12:53:33;;;;;;;6.13;3.13;;;21.40;99.90;;;;;;4973908;28;20263;-63
2022/06/17 12:56:10;;;;;;;5.15;3.20;;;21.40;99.90;;;;;;5028872;28;20784;-63
2022/06/17 12:59:03;;;;;;;5.78;2.97;;;21.40;99.90;;;;;;5026490;28;20284;-62
2022/06/17 13:01:37;;;;;;;5.90;3.22;;;21.50;99.90;;;;;;5031498;28;20761;-62
2022/06/17 13:04:30;;;;;;;4.45;3.00;;;21.50;99.90;;;;;;5007768;28;20940;-63
2022/06/17 13:07:08;;;;;;;5.05;3.38;;;21.50;99.90;;;;;;5013617;28;20224;-63
2022/06/17 13:09:45;;;;;;;5.25;3.25;;;21.50;99.90;;;;;;5024606;28;20705;-63
2022/06/17 13:12:17;;;;;;;6.28;3.08;;;21.50;99.90;;;;;;5004133;28;20226;-63
2022/06/17 13:14:54;;;;;;;4.40;3.15;;;21.60;99.90;;;;;;5023502;28;20767;-63
2022/06/17 13:17:30;;;;;;;8.05;3.30;;;21.60;99.90;;;;;;5032525;28;20679;-63
2022/06/17 13:20:05;;;;;;;9.00;3.60;;;21.60;99.90;;;;;;5003104;28;20221;-62
2022/06/17 13:22:40;;;;;;;5.43;3.35;;;21.60;99.90;;;;;;5009706;28;20534;-63
2022/06/17 13:25:17;;;;;;;5.30;3.63;;;21.70;99.90;;;;;;5006529;28;20240;-62